Hundvaag 1 weather for Dec 2007
Month no. 246
Obs.
Da.
Temp. Dew Point Precip. Wind
Speed
Wind gusts Cloud cover Press. Humidity Wind dir. Sunny OPT
01.12.2007 8,0   14,6 3,0   0 979,0 87,0 180,0   52,5 %
02.12.2007 5,9   17,5 2,0   0 984,4 82,0 90,0 1 47,5 %
03.12.2007 2,3   0,3 0,0   9 979,0 89,0 45,0 1 77,5 %
04.12.2007 2,3   0,0 0,0   8 999,0 89,0 67,5 1 75,0 %
05.12.2007 10,1   8,5 5,0   0 991,9 88,0 202,5   57,5 %
06.12.2007 7,2   12,1 3,0   0 987,5 90,0 45,0   50,0 %
07.12.2007 7,0   5,0 2,0   8 976,0 78,0 180,0 1 77,5 %
08.12.2007 4,3   2,6 6,0   6 990,9 76,0 337,5 1 70,0 %
09.12.2007 4,7   1,2 7,0   1 983,4 66,0 45,0   57,5 %
10.12.2007 4,8   0,2 0,0   2 998,3 70,0 0,0 1 62,5 %
11.12.2007 1,3   0,0 2,0   10 1021,0 86,0 22,5 1 80,0 %
12.12.2007 -0,3   0,0 0,0   10 1036,9 81,0 22,5 1 77,5 %
13.12.2007 4,3   0,0 4,0   6 1040,3 76,0 157,5 1 70,0 %
14.12.2007 5,3   0,0 3,0   0 1037,6 83,0 90,0   60,0 %
15.12.2007 5,5   0,0 1,0   0 1039,3 81,0 157,5   60,0 %
16.12.2007 5,2   0,0 1,0   0 1040,6 77,0 67,5   60,0 %
17.12.2007 2,4   0,0 0,0   10 1043,3 88,0 315,0 1 80,0 %
18.12.2007 -0,2   0,0 0,0   1 1042,7 89,0 337,5   55,0 %
19.12.2007 0,4   0,0 2,0   1 1041,0 83,0 45,0   57,5 %
20.12.2007 -1,2   0,0 0,0   10 1037,2 89,0 0,0 1 77,5 %
21.12.2007 -0,9   0,0 1,0   0 1030,5 92,0 0,0   52,5 %
22.12.2007 3,1   0,0 1,0   0 1022,0 86,0 157,5   57,5 %
23.12.2007 3,8   2,2 0,0   2 1019,0 89,0 157,5 1 62,5 %
24.12.2007 5,8   0,0 3,0   0 1013,2 87,0 157,5   60,0 %
25.12.2007 4,2   11,2 0,0   0 1014,2 91,0 180,0   50,0 %
26.12.2007 6,3   5,0 9,0   2 1004,4 85,0 225,0   57,5 %
27.12.2007 8,2   0,1 11,0   0 1007,4 86,0 202,5   55,0 %
28.12.2007 4,6   9,1 0,0   0 1009,1 97,0 135,0   50,0 %
29.12.2007 8,2   15,0 11,0   3 989,8 89,0 202,5 1 50,0 %
30.12.2007 3,6   6,2 2,0   4 1010,5 83,0 315,0 1 62,5 %
31.12.2007 3,7   1,8 1,0   10 1025,1 90,0 45,0 1 82,5 %
Avrg/Sum 4,2   112,6 2,6   3,3 1012,7 84,6 135,0 15 62,7 %